Terminal Aerodrome Forecast
Issued by NWS

Home | Current Version | Previous Version | Text Only | Print | Product List | Glossary On
Versions: 1 2 3 4 5 6 7 8 9 10 11 12 13
000
FTUS41 KBTV 230541
TAFRUT
TAF
KRUT 230541Z 2306/2406 VRB04KT P6SM BKN020
      TEMPO 2307/2311 5SM BR BKN015
     FM231400 26011KT P6SM FEW100
     FM240300 15004KT P6SM FEW200=

USA.gov is the U.S. government's official web portal to all federal, state and local government web resources and services.